sensor_id;sensor_type;location;lat;lon;timestamp;P1;durP1;ratioP1;P2;durP2;ratioP2
8893;SDS011;4483;48.622;9.230;2023-07-16T00:02:10;3.75;;;1.90;;
8893;SDS011;4483;48.622;9.230;2023-07-16T00:04:36;5.55;;;2.03;;
8893;SDS011;4483;48.622;9.230;2023-07-16T00:07:03;2.70;;;2.17;;
8893;SDS011;4483;48.622;9.230;2023-07-16T00:09:30;2.25;;;1.90;;
8893;SDS011;4483;48.622;9.230;2023-07-16T00:11:57;3.13;;;2.00;;
8893;SDS011;4483;48.622;9.230;2023-07-16T00:14:25;2.13;;;1.80;;
8893;SDS011;4483;48.622;9.230;2023-07-16T00:16:51;3.83;;;2.22;;
8893;SDS011;4483;48.622;9.230;2023-07-16T00:19:18;2.85;;;2.00;;
8893;SDS011;4483;48.622;9.230;2023-07-16T00:21:44;3.35;;;2.08;;
8893;SDS011;4483;48.622;9.230;2023-07-16T00:24:11;1.95;;;1.77;;
8893;SDS011;4483;48.622;9.230;2023-07-16T00:26:38;4.13;;;2.17;;
8893;SDS011;4483;48.622;9.230;2023-07-16T00:29:04;3.58;;;1.90;;
8893;SDS011;4483;48.622;9.230;2023-07-16T00:31:32;2.65;;;2.40;;
8893;SDS011;4483;48.622;9.230;2023-07-16T00:33:59;2.25;;;1.88;;
8893;SDS011;4483;48.622;9.230;2023-07-16T00:36:25;2.53;;;1.83;;
8893;SDS011;4483;48.622;9.230;2023-07-16T00:38:52;2.22;;;2.03;;
8893;SDS011;4483;48.622;9.230;2023-07-16T00:41:18;2.13;;;1.85;;
8893;SDS011;4483;48.622;9.230;2023-07-16T00:43:45;4.72;;;2.17;;
8893;SDS011;4483;48.622;9.230;2023-07-16T00:46:11;1.90;;;1.70;;
8893;SDS011;4483;48.622;9.230;2023-07-16T00:48:40;2.83;;;1.80;;
8893;SDS011;4483;48.622;9.230;2023-07-16T00:51:08;4.68;;;2.10;;
8893;SDS011;4483;48.622;9.230;2023-07-16T00:53:35;2.17;;;1.70;;
8893;SDS011;4483;48.622;9.230;2023-07-16T00:56:02;2.92;;;1.42;;
8893;SDS011;4483;48.622;9.230;2023-07-16T00:58:29;3.55;;;1.67;;
8893;SDS011;4483;48.622;9.230;2023-07-16T01:00:56;1.77;;;1.67;;
8893;SDS011;4483;48.622;9.230;2023-07-16T01:03:22;1.63;;;1.52;;
8893;SDS011;4483;48.622;9.230;2023-07-16T01:05:53;1.98;;;1.75;;
8893;SDS011;4483;48.622;9.230;2023-07-16T01:08:27;2.10;;;1.50;;
8893;SDS011;4483;48.622;9.230;2023-07-16T01:10:57;1.80;;;1.70;;
8893;SDS011;4483;48.622;9.230;2023-07-16T01:13:26;2.40;;;2.00;;
8893;SDS011;4483;48.622;9.230;2023-07-16T01:15:53;1.80;;;1.70;;
8893;SDS011;4483;48.622;9.230;2023-07-16T01:18:20;2.35;;;1.60;;
8893;SDS011;4483;48.622;9.230;2023-07-16T01:20:46;3.60;;;1.58;;
8893;SDS011;4483;48.622;9.230;2023-07-16T01:23:24;2.05;;;1.80;;
8893;SDS011;4483;48.622;9.230;2023-07-16T01:26:02;1.50;;;1.40;;
8893;SDS011;4483;48.622;9.230;2023-07-16T01:28:46;2.80;;;1.50;;
8893;SDS011;4483;48.622;9.230;2023-07-16T01:31:25;1.90;;;1.50;;
8893;SDS011;4483;48.622;9.230;2023-07-16T01:33:53;1.50;;;1.40;;
8893;SDS011;4483;48.622;9.230;2023-07-16T01:36:20;2.75;;;1.40;;
8893;SDS011;4483;48.622;9.230;2023-07-16T01:38:49;2.08;;;1.65;;
8893;SDS011;4483;48.622;9.230;2023-07-16T01:41:15;1.60;;;1.50;;
8893;SDS011;4483;48.622;9.230;2023-07-16T01:43:42;5.72;;;1.70;;
8893;SDS011;4483;48.622;9.230;2023-07-16T01:46:09;1.92;;;1.50;;
8893;SDS011;4483;48.622;9.230;2023-07-16T01:48:37;2.10;;;1.27;;
8893;SDS011;4483;48.622;9.230;2023-07-16T01:51:04;1.40;;;1.40;;
8893;SDS011;4483;48.622;9.230;2023-07-16T01:53:31;1.40;;;1.30;;
8893;SDS011;4483;48.622;9.230;2023-07-16T01:55:58;6.55;;;1.15;;
8893;SDS011;4483;48.622;9.230;2023-07-16T01:58:27;1.90;;;1.40;;
8893;SDS011;4483;48.622;9.230;2023-07-16T02:00:53;1.85;;;1.50;;
8893;SDS011;4483;48.622;9.230;2023-07-16T02:03:20;4.30;;;1.25;;
8893;SDS011;4483;48.622;9.230;2023-07-16T02:05:48;1.50;;;1.40;;
8893;SDS011;4483;48.622;9.230;2023-07-16T02:08:16;1.35;;;1.30;;
8893;SDS011;4483;48.622;9.230;2023-07-16T02:10:42;1.25;;;1.15;;
8893;SDS011;4483;48.622;9.230;2023-07-16T02:13:09;1.23;;;1.23;;
8893;SDS011;4483;48.622;9.230;2023-07-16T02:15:36;1.45;;;1.35;;
8893;SDS011;4483;48.622;9.230;2023-07-16T02:18:03;1.08;;;1.08;;
8893;SDS011;4483;48.622;9.230;2023-07-16T02:20:30;3.03;;;1.30;;
8893;SDS011;4483;48.622;9.230;2023-07-16T02:22:58;1.42;;;1.33;;
8893;SDS011;4483;48.622;9.230;2023-07-16T02:25:24;1.10;;;1.10;;
8893;SDS011;4483;48.622;9.230;2023-07-16T02:27:51;1.50;;;1.40;;
8893;SDS011;4483;48.622;9.230;2023-07-16T02:30:18;5.30;;;1.40;;
8893;SDS011;4483;48.622;9.230;2023-07-16T02:32:44;2.25;;;1.25;;
8893;SDS011;4483;48.622;9.230;2023-07-16T02:35:11;1.52;;;1.42;;
8893;SDS011;4483;48.622;9.230;2023-07-16T02:37:37;1.25;;;1.15;;
8893;SDS011;4483;48.622;9.230;2023-07-16T02:40:07;1.30;;;1.20;;
8893;SDS011;4483;48.622;9.230;2023-07-16T02:42:34;1.60;;;1.23;;
8893;SDS011;4483;48.622;9.230;2023-07-16T02:45:00;1.23;;;1.13;;
8893;SDS011;4483;48.622;9.230;2023-07-16T02:47:27;1.42;;;1.30;;
8893;SDS011;4483;48.622;9.230;2023-07-16T02:49:54;1.30;;;1.10;;
8893;SDS011;4483;48.622;9.230;2023-07-16T02:52:20;1.10;;;1.10;;
8893;SDS011;4483;48.622;9.230;2023-07-16T02:54:47;2.65;;;1.17;;
8893;SDS011;4483;48.622;9.230;2023-07-16T02:57:15;3.65;;;1.10;;
8893;SDS011;4483;48.622;9.230;2023-07-16T02:59:41;1.15;;;1.15;;
8893;SDS011;4483;48.622;9.230;2023-07-16T03:02:08;1.30;;;1.20;;
8893;SDS011;4483;48.622;9.230;2023-07-16T03:04:34;1.77;;;1.17;;
8893;SDS011;4483;48.622;9.230;2023-07-16T03:07:01;1.30;;;1.13;;
8893;SDS011;4483;48.622;9.230;2023-07-16T03:09:28;1.00;;;1.00;;
8893;SDS011;4483;48.622;9.230;2023-07-16T03:11:55;5.90;;;1.20;;
8893;SDS011;4483;48.622;9.230;2023-07-16T03:14:23;1.58;;;1.00;;
8893;SDS011;4483;48.622;9.230;2023-07-16T03:16:49;2.20;;;1.20;;
8893;SDS011;4483;48.622;9.230;2023-07-16T03:19:16;7.00;;;1.20;;
8893;SDS011;4483;48.622;9.230;2023-07-16T03:21:42;1.20;;;1.20;;
8893;SDS011;4483;48.622;9.230;2023-07-16T03:24:11;1.27;;;1.23;;
8893;SDS011;4483;48.622;9.230;2023-07-16T03:26:37;0.95;;;0.95;;
8893;SDS011;4483;48.622;9.230;2023-07-16T03:29:04;1.20;;;1.10;;
8893;SDS011;4483;48.622;9.230;2023-07-16T03:31:32;2.17;;;1.98;;
8893;SDS011;4483;48.622;9.230;2023-07-16T03:33:58;3.13;;;0.90;;
8893;SDS011;4483;48.622;9.230;2023-07-16T03:36:25;1.02;;;1.02;;
8893;SDS011;4483;48.622;9.230;2023-07-16T03:38:51;1.63;;;1.25;;
8893;SDS011;4483;48.622;9.230;2023-07-16T03:41:18;3.35;;;1.13;;
8893;SDS011;4483;48.622;9.230;2023-07-16T03:43:45;2.40;;;1.30;;
8893;SDS011;4483;48.622;9.230;2023-07-16T03:46:11;1.52;;;1.10;;
8893;SDS011;4483;48.622;9.230;2023-07-16T03:48:39;1.10;;;1.10;;
8893;SDS011;4483;48.622;9.230;2023-07-16T03:51:06;1.08;;;1.08;;
8893;SDS011;4483;48.622;9.230;2023-07-16T03:53:32;7.15;;;1.10;;
8893;SDS011;4483;48.622;9.230;2023-07-16T03:55:59;1.33;;;1.20;;
8893;SDS011;4483;48.622;9.230;2023-07-16T03:58:25;3.97;;;1.17;;
8893;SDS011;4483;48.622;9.230;2023-07-16T04:00:54;2.97;;;1.23;;
8893;SDS011;4483;48.622;9.230;2023-07-16T04:03:20;1.52;;;1.35;;
8893;SDS011;4483;48.622;9.230;2023-07-16T04:05:48;0.98;;;0.98;;
8893;SDS011;4483;48.622;9.230;2023-07-16T04:08:15;1.00;;;1.00;;
8893;SDS011;4483;48.622;9.230;2023-07-16T04:10:42;2.67;;;1.20;;
8893;SDS011;4483;48.622;9.230;2023-07-16T04:13:08;1.00;;;1.00;;
8893;SDS011;4483;48.622;9.230;2023-07-16T04:15:35;3.33;;;1.30;;
8893;SDS011;4483;48.622;9.230;2023-07-16T04:18:01;1.30;;;1.20;;
8893;SDS011;4483;48.622;9.230;2023-07-16T04:20:29;0.93;;;0.93;;
8893;SDS011;4483;48.622;9.230;2023-07-16T04:22:57;1.90;;;1.00;;
8893;SDS011;4483;48.622;9.230;2023-07-16T04:25:23;5.97;;;1.40;;
8893;SDS011;4483;48.622;9.230;2023-07-16T04:27:50;5.20;;;1.52;;
8893;SDS011;4483;48.622;9.230;2023-07-16T04:30:16;1.30;;;1.20;;
8893;SDS011;4483;48.622;9.230;2023-07-16T04:32:43;1.35;;;0.98;;
8893;SDS011;4483;48.622;9.230;2023-07-16T04:35:10;1.40;;;1.17;;
8893;SDS011;4483;48.622;9.230;2023-07-16T04:37:36;5.60;;;1.30;;
8893;SDS011;4483;48.622;9.230;2023-07-16T04:40:05;2.35;;;1.00;;
8893;SDS011;4483;48.622;9.230;2023-07-16T04:42:33;2.40;;;1.20;;
8893;SDS011;4483;48.622;9.230;2023-07-16T04:44:59;2.25;;;1.20;;
8893;SDS011;4483;48.622;9.230;2023-07-16T04:47:26;3.58;;;1.15;;
8893;SDS011;4483;48.622;9.230;2023-07-16T04:49:53;1.67;;;1.08;;
8893;SDS011;4483;48.622;9.230;2023-07-16T04:52:19;2.92;;;1.30;;
8893;SDS011;4483;48.622;9.230;2023-07-16T04:54:46;3.20;;;1.42;;
8893;SDS011;4483;48.622;9.230;2023-07-16T04:57:14;3.33;;;1.40;;
8893;SDS011;4483;48.622;9.230;2023-07-16T04:59:40;4.65;;;1.02;;
8893;SDS011;4483;48.622;9.230;2023-07-16T05:02:07;12.30;;;1.58;;
8893;SDS011;4483;48.622;9.230;2023-07-16T05:04:34;1.00;;;1.00;;
8893;SDS011;4483;48.622;9.230;2023-07-16T05:07:01;7.20;;;1.00;;
8893;SDS011;4483;48.622;9.230;2023-07-16T05:09:28;1.60;;;0.90;;
8893;SDS011;4483;48.622;9.230;2023-07-16T05:11:55;1.30;;;1.20;;
8893;SDS011;4483;48.622;9.230;2023-07-16T05:14:25;0.90;;;0.90;;
8893;SDS011;4483;48.622;9.230;2023-07-16T05:16:53;1.08;;;1.08;;
8893;SDS011;4483;48.622;9.230;2023-07-16T05:19:19;3.13;;;1.08;;
8893;SDS011;4483;48.622;9.230;2023-07-16T05:21:46;1.75;;;1.23;;
8893;SDS011;4483;48.622;9.230;2023-07-16T05:24:13;1.50;;;1.00;;
8893;SDS011;4483;48.622;9.230;2023-07-16T05:26:39;1.17;;;1.17;;
8893;SDS011;4483;48.622;9.230;2023-07-16T05:29:06;2.30;;;1.05;;
8893;SDS011;4483;48.622;9.230;2023-07-16T05:31:34;1.00;;;1.00;;
8893;SDS011;4483;48.622;9.230;2023-07-16T05:34:00;4.60;;;1.10;;
8893;SDS011;4483;48.622;9.230;2023-07-16T05:36:27;1.48;;;1.10;;
8893;SDS011;4483;48.622;9.230;2023-07-16T05:38:54;1.45;;;1.00;;
8893;SDS011;4483;48.622;9.230;2023-07-16T05:41:20;1.38;;;1.20;;
8893;SDS011;4483;48.622;9.230;2023-07-16T05:43:47;1.38;;;1.25;;
8893;SDS011;4483;48.622;9.230;2023-07-16T05:46:14;1.02;;;1.02;;
8893;SDS011;4483;48.622;9.230;2023-07-16T05:48:42;2.88;;;1.25;;
8893;SDS011;4483;48.622;9.230;2023-07-16T05:51:08;2.22;;;1.58;;
8893;SDS011;4483;48.622;9.230;2023-07-16T05:53:35;1.17;;;1.08;;
8893;SDS011;4483;48.622;9.230;2023-07-16T05:56:01;1.00;;;1.00;;
8893;SDS011;4483;48.622;9.230;2023-07-16T05:58:28;1.17;;;1.10;;
8893;SDS011;4483;48.622;9.230;2023-07-16T06:00:55;1.90;;;1.10;;
8893;SDS011;4483;48.622;9.230;2023-07-16T06:03:21;2.03;;;1.40;;
8893;SDS011;4483;48.622;9.230;2023-07-16T06:05:49;1.13;;;1.13;;
8893;SDS011;4483;48.622;9.230;2023-07-16T06:08:16;2.10;;;1.20;;
8893;SDS011;4483;48.622;9.230;2023-07-16T06:10:42;2.20;;;1.48;;
8893;SDS011;4483;48.622;9.230;2023-07-16T06:13:09;1.10;;;1.10;;
8893;SDS011;4483;48.622;9.230;2023-07-16T06:15:36;1.77;;;1.33;;
8893;SDS011;4483;48.622;9.230;2023-07-16T06:18:02;1.38;;;1.27;;
8893;SDS011;4483;48.622;9.230;2023-07-16T06:20:29;1.00;;;1.00;;
8893;SDS011;4483;48.622;9.230;2023-07-16T06:22:57;2.67;;;1.13;;
8893;SDS011;4483;48.622;9.230;2023-07-16T06:25:24;3.78;;;1.17;;
8893;SDS011;4483;48.622;9.230;2023-07-16T06:27:50;2.25;;;1.30;;
8893;SDS011;4483;48.622;9.230;2023-07-16T06:30:17;1.55;;;1.10;;
8893;SDS011;4483;48.622;9.230;2023-07-16T06:32:43;4.95;;;1.48;;
8893;SDS011;4483;48.622;9.230;2023-07-16T06:35:10;3.00;;;1.20;;
8893;SDS011;4483;48.622;9.230;2023-07-16T06:37:36;1.48;;;1.30;;
8893;SDS011;4483;48.622;9.230;2023-07-16T06:40:05;3.45;;;1.20;;
8893;SDS011;4483;48.622;9.230;2023-07-16T06:42:33;2.47;;;1.30;;
8893;SDS011;4483;48.622;9.230;2023-07-16T06:44:59;1.75;;;1.42;;
8893;SDS011;4483;48.622;9.230;2023-07-16T06:47:26;8.48;;;1.60;;
8893;SDS011;4483;48.622;9.230;2023-07-16T06:49:53;2.97;;;1.35;;
8893;SDS011;4483;48.622;9.230;2023-07-16T06:52:19;3.17;;;1.30;;
8893;SDS011;4483;48.622;9.230;2023-07-16T06:54:46;4.65;;;1.60;;
8893;SDS011;4483;48.622;9.230;2023-07-16T06:57:15;1.65;;;1.00;;
8893;SDS011;4483;48.622;9.230;2023-07-16T06:59:41;1.95;;;1.40;;
8893;SDS011;4483;48.622;9.230;2023-07-16T07:02:08;2.38;;;1.35;;
8893;SDS011;4483;48.622;9.230;2023-07-16T07:04:34;1.88;;;1.27;;
8893;SDS011;4483;48.622;9.230;2023-07-16T07:07:01;3.05;;;1.50;;
8893;SDS011;4483;48.622;9.230;2023-07-16T07:09:28;2.58;;;1.33;;
8893;SDS011;4483;48.622;9.230;2023-07-16T07:11:54;1.45;;;1.30;;
8893;SDS011;4483;48.622;9.230;2023-07-16T07:14:22;5.18;;;1.50;;
8893;SDS011;4483;48.622;9.230;2023-07-16T07:16:49;6.00;;;1.40;;
8893;SDS011;4483;48.622;9.230;2023-07-16T07:19:15;2.35;;;1.60;;
8893;SDS011;4483;48.622;9.230;2023-07-16T07:21:42;1.75;;;1.27;;
8893;SDS011;4483;48.622;9.230;2023-07-16T07:24:09;3.35;;;1.58;;
8893;SDS011;4483;48.622;9.230;2023-07-16T07:26:35;3.83;;;1.50;;
8893;SDS011;4483;48.622;9.230;2023-07-16T07:29:02;3.15;;;1.80;;
8893;SDS011;4483;48.622;9.230;2023-07-16T07:31:30;5.60;;;1.30;;
8893;SDS011;4483;48.622;9.230;2023-07-16T07:33:57;7.47;;;1.80;;
8893;SDS011;4483;48.622;9.230;2023-07-16T07:36:23;4.72;;;1.58;;
8893;SDS011;4483;48.622;9.230;2023-07-16T07:38:50;3.72;;;1.40;;
8893;SDS011;4483;48.622;9.230;2023-07-16T07:41:17;6.35;;;1.58;;
8893;SDS011;4483;48.622;9.230;2023-07-16T07:43:43;6.03;;;1.70;;
8893;SDS011;4483;48.622;9.230;2023-07-16T07:46:10;3.05;;;1.30;;
8893;SDS011;4483;48.622;9.230;2023-07-16T07:48:38;3.08;;;1.48;;
8893;SDS011;4483;48.622;9.230;2023-07-16T07:51:04;2.38;;;1.45;;
8893;SDS011;4483;48.622;9.230;2023-07-16T07:53:31;3.22;;;1.67;;
8893;SDS011;4483;48.622;9.230;2023-07-16T07:55:58;4.75;;;1.38;;
8893;SDS011;4483;48.622;9.230;2023-07-16T07:58:24;3.28;;;1.63;;
8893;SDS011;4483;48.622;9.230;2023-07-16T08:00:51;3.45;;;1.60;;
8893;SDS011;4483;48.622;9.230;2023-07-16T08:03:17;2.78;;;1.38;;
8893;SDS011;4483;48.622;9.230;2023-07-16T08:05:45;3.80;;;1.58;;
8893;SDS011;4483;48.622;9.230;2023-07-16T08:08:14;4.40;;;1.80;;
8893;SDS011;4483;48.622;9.230;2023-07-16T08:10:41;1.70;;;1.60;;
8893;SDS011;4483;48.622;9.230;2023-07-16T08:13:08;4.03;;;1.38;;
8893;SDS011;4483;48.622;9.230;2023-07-16T08:15:34;3.15;;;1.33;;
8893;SDS011;4483;48.622;9.230;2023-07-16T08:18:02;2.72;;;1.50;;
8893;SDS011;4483;48.622;9.230;2023-07-16T08:20:29;2.78;;;1.58;;
8893;SDS011;4483;48.622;9.230;2023-07-16T08:22:57;3.58;;;1.60;;
8893;SDS011;4483;48.622;9.230;2023-07-16T08:25:23;4.93;;;1.63;;
8893;SDS011;4483;48.622;9.230;2023-07-16T08:27:51;3.53;;;1.55;;
8893;SDS011;4483;48.622;9.230;2023-07-16T08:30:18;4.00;;;1.52;;
8893;SDS011;4483;48.622;9.230;2023-07-16T08:32:44;2.35;;;1.50;;
8893;SDS011;4483;48.622;9.230;2023-07-16T08:35:11;3.20;;;1.70;;
8893;SDS011;4483;48.622;9.230;2023-07-16T08:37:41;2.47;;;1.65;;
8893;SDS011;4483;48.622;9.230;2023-07-16T08:40:10;1.60;;;1.40;;
8893;SDS011;4483;48.622;9.230;2023-07-16T08:42:37;2.95;;;1.35;;
8893;SDS011;4483;48.622;9.230;2023-07-16T08:45:05;5.03;;;1.85;;
8893;SDS011;4483;48.622;9.230;2023-07-16T08:47:33;2.42;;;1.52;;
8893;SDS011;4483;48.622;9.230;2023-07-16T08:50:02;3.25;;;1.50;;
8893;SDS011;4483;48.622;9.230;2023-07-16T08:52:29;1.73;;;1.58;;
8893;SDS011;4483;48.622;9.230;2023-07-16T08:54:56;4.22;;;1.50;;
8893;SDS011;4483;48.622;9.230;2023-07-16T08:57:24;3.63;;;1.67;;
8893;SDS011;4483;48.622;9.230;2023-07-16T08:59:52;3.10;;;1.60;;
8893;SDS011;4483;48.622;9.230;2023-07-16T09:02:20;5.80;;;1.95;;
8893;SDS011;4483;48.622;9.230;2023-07-16T09:04:47;2.47;;;1.65;;
8893;SDS011;4483;48.622;9.230;2023-07-16T09:07:14;2.35;;;1.40;;
8893;SDS011;4483;48.622;9.230;2023-07-16T09:09:41;4.07;;;1.80;;
8893;SDS011;4483;48.622;9.230;2023-07-16T09:12:10;4.70;;;1.60;;
8893;SDS011;4483;48.622;9.230;2023-07-16T09:14:41;2.03;;;1.33;;
8893;SDS011;4483;48.622;9.230;2023-07-16T09:17:09;3.17;;;1.50;;
8893;SDS011;4483;48.622;9.230;2023-07-16T09:19:35;2.58;;;1.75;;
8893;SDS011;4483;48.622;9.230;2023-07-16T09:22:03;4.78;;;1.50;;
8893;SDS011;4483;48.622;9.230;2023-07-16T09:24:30;3.20;;;1.48;;
8893;SDS011;4483;48.622;9.230;2023-07-16T09:26:57;3.50;;;1.60;;
8893;SDS011;4483;48.622;9.230;2023-07-16T09:29:26;3.58;;;1.63;;
8893;SDS011;4483;48.622;9.230;2023-07-16T09:31:55;4.30;;;1.70;;
8893;SDS011;4483;48.622;9.230;2023-07-16T09:34:22;1.65;;;1.42;;
8893;SDS011;4483;48.622;9.230;2023-07-16T09:36:49;3.05;;;1.55;;
8893;SDS011;4483;48.622;9.230;2023-07-16T09:39:16;2.00;;;1.40;;
8893;SDS011;4483;48.622;9.230;2023-07-16T09:41:44;3.17;;;1.55;;
8893;SDS011;4483;48.622;9.230;2023-07-16T09:44:11;2.78;;;1.60;;
8893;SDS011;4483;48.622;9.230;2023-07-16T09:46:39;1.50;;;1.40;;
8893;SDS011;4483;48.622;9.230;2023-07-16T09:49:07;1.27;;;1.23;;
8893;SDS011;4483;48.622;9.230;2023-07-16T09:51:35;1.45;;;1.35;;
8893;SDS011;4483;48.622;9.230;2023-07-16T09:54:03;1.60;;;1.50;;
8893;SDS011;4483;48.622;9.230;2023-07-16T09:56:32;2.78;;;1.30;;
8893;SDS011;4483;48.622;9.230;2023-07-16T09:59:01;1.42;;;1.33;;
8893;SDS011;4483;48.622;9.230;2023-07-16T10:01:32;2.58;;;1.40;;
8893;SDS011;4483;48.622;9.230;2023-07-16T10:04:10;2.15;;;1.30;;
8893;SDS011;4483;48.622;9.230;2023-07-16T10:06:47;2.83;;;1.48;;
8893;SDS011;4483;48.622;9.230;2023-07-16T10:12:15;1.92;;;1.70;;
8893;SDS011;4483;48.622;9.230;2023-07-16T10:14:45;3.33;;;1.70;;
8893;SDS011;4483;48.622;9.230;2023-07-16T10:17:14;1.60;;;1.50;;
8893;SDS011;4483;48.622;9.230;2023-07-16T10:19:49;1.52;;;1.30;;
8893;SDS011;4483;48.622;9.230;2023-07-16T10:22:18;3.70;;;1.60;;
8893;SDS011;4483;48.622;9.230;2023-07-16T10:24:51;1.48;;;1.40;;
8893;SDS011;4483;48.622;9.230;2023-07-16T10:27:26;2.17;;;1.50;;
8893;SDS011;4483;48.622;9.230;2023-07-16T10:29:53;2.22;;;1.42;;
8893;SDS011;4483;48.622;9.230;2023-07-16T10:32:20;2.28;;;1.55;;
8893;SDS011;4483;48.622;9.230;2023-07-16T10:34:47;3.92;;;1.63;;
8893;SDS011;4483;48.622;9.230;2023-07-16T10:37:15;1.55;;;1.45;;
8893;SDS011;4483;48.622;9.230;2023-07-16T10:39:45;2.95;;;1.50;;
8893;SDS011;4483;48.622;9.230;2023-07-16T10:42:13;1.50;;;1.40;;
8893;SDS011;4483;48.622;9.230;2023-07-16T10:44:39;2.65;;;1.58;;
8893;SDS011;4483;48.622;9.230;2023-07-16T10:47:06;1.83;;;1.38;;
8893;SDS011;4483;48.622;9.230;2023-07-16T10:49:33;1.52;;;1.30;;
8893;SDS011;4483;48.622;9.230;2023-07-16T10:52:00;2.80;;;1.65;;
8893;SDS011;4483;48.622;9.230;2023-07-16T10:54:29;3.33;;;1.48;;
8893;SDS011;4483;48.622;9.230;2023-07-16T10:56:55;1.60;;;1.50;;
8893;SDS011;4483;48.622;9.230;2023-07-16T10:59:22;4.63;;;1.77;;
8893;SDS011;4483;48.622;9.230;2023-07-16T11:01:49;2.33;;;1.65;;
8893;SDS011;4483;48.622;9.230;2023-07-16T11:04:16;1.50;;;1.40;;
8893;SDS011;4483;48.622;9.230;2023-07-16T11:06:42;1.52;;;1.38;;
8893;SDS011;4483;48.622;9.230;2023-07-16T11:09:09;1.80;;;1.58;;
8893;SDS011;4483;48.622;9.230;2023-07-16T11:11:38;2.97;;;1.52;;
8893;SDS011;4483;48.622;9.230;2023-07-16T11:14:05;2.83;;;1.95;;
8893;SDS011;4483;48.622;9.230;2023-07-16T11:16:33;2.13;;;1.58;;
8893;SDS011;4483;48.622;9.230;2023-07-16T11:19:01;1.98;;;1.63;;
8893;SDS011;4483;48.622;9.230;2023-07-16T11:21:30;2.00;;;1.30;;
8893;SDS011;4483;48.622;9.230;2023-07-16T11:24:06;2.05;;;1.42;;
8893;SDS011;4483;48.622;9.230;2023-07-16T11:26:34;1.88;;;1.67;;
8893;SDS011;4483;48.622;9.230;2023-07-16T11:29:07;2.08;;;1.88;;
8893;SDS011;4483;48.622;9.230;2023-07-16T11:31:39;4.38;;;2.05;;
8893;SDS011;4483;48.622;9.230;2023-07-16T11:34:06;4.75;;;1.70;;
8893;SDS011;4483;48.622;9.230;2023-07-16T11:36:33;2.03;;;1.70;;
8893;SDS011;4483;48.622;9.230;2023-07-16T11:39:02;1.65;;;1.52;;
8893;SDS011;4483;48.622;9.230;2023-07-16T11:41:29;1.88;;;1.70;;
8893;SDS011;4483;48.622;9.230;2023-07-16T11:43:58;1.70;;;1.60;;
8893;SDS011;4483;48.622;9.230;2023-07-16T11:46:30;1.65;;;1.38;;
8893;SDS011;4483;48.622;9.230;2023-07-16T11:48:57;1.80;;;1.50;;
8893;SDS011;4483;48.622;9.230;2023-07-16T11:51:24;1.73;;;1.63;;
8893;SDS011;4483;48.622;9.230;2023-07-16T11:53:51;1.42;;;1.33;;
8893;SDS011;4483;48.622;9.230;2023-07-16T11:56:17;2.65;;;1.65;;
8893;SDS011;4483;48.622;9.230;2023-07-16T11:58:43;1.80;;;1.40;;
8893;SDS011;4483;48.622;9.230;2023-07-16T12:01:10;2.03;;;1.77;;
8893;SDS011;4483;48.622;9.230;2023-07-16T12:03:38;3.33;;;1.60;;
8893;SDS011;4483;48.622;9.230;2023-07-16T12:06:04;2.28;;;1.60;;
8893;SDS011;4483;48.622;9.230;2023-07-16T12:08:31;2.25;;;1.58;;
8893;SDS011;4483;48.622;9.230;2023-07-16T12:10:58;2.80;;;1.40;;
8893;SDS011;4483;48.622;9.230;2023-07-16T12:13:25;1.52;;;1.42;;
8893;SDS011;4483;48.622;9.230;2023-07-16T12:15:51;1.45;;;1.35;;
8893;SDS011;4483;48.622;9.230;2023-07-16T12:18:18;1.73;;;1.63;;
8893;SDS011;4483;48.622;9.230;2023-07-16T12:20:46;2.90;;;1.77;;
8893;SDS011;4483;48.622;9.230;2023-07-16T12:23:12;1.77;;;1.40;;
8893;SDS011;4483;48.622;9.230;2023-07-16T12:25:39;4.40;;;1.70;;
8893;SDS011;4483;48.622;9.230;2023-07-16T12:28:05;3.97;;;1.55;;
8893;SDS011;4483;48.622;9.230;2023-07-16T12:30:32;1.60;;;1.50;;
8893;SDS011;4483;48.622;9.230;2023-07-16T12:32:58;1.77;;;1.60;;
8893;SDS011;4483;48.622;9.230;2023-07-16T12:35:25;2.00;;;1.55;;
8893;SDS011;4483;48.622;9.230;2023-07-16T12:37:53;1.65;;;1.48;;
8893;SDS011;4483;48.622;9.230;2023-07-16T12:40:20;2.75;;;1.75;;
8893;SDS011;4483;48.622;9.230;2023-07-16T12:42:46;1.83;;;1.73;;
8893;SDS011;4483;48.622;9.230;2023-07-16T12:45:13;1.48;;;1.38;;
8893;SDS011;4483;48.622;9.230;2023-07-16T12:47:39;1.58;;;1.42;;
8893;SDS011;4483;48.622;9.230;2023-07-16T12:50:07;3.47;;;1.38;;
8893;SDS011;4483;48.622;9.230;2023-07-16T12:52:34;1.75;;;1.65;;
8893;SDS011;4483;48.622;9.230;2023-07-16T12:55:02;3.33;;;1.40;;
8893;SDS011;4483;48.622;9.230;2023-07-16T12:57:29;1.40;;;1.30;;
8893;SDS011;4483;48.622;9.230;2023-07-16T12:59:57;2.63;;;1.40;;
8893;SDS011;4483;48.622;9.230;2023-07-16T13:02:23;1.67;;;1.58;;
8893;SDS011;4483;48.622;9.230;2023-07-16T13:04:50;1.50;;;1.40;;
8893;SDS011;4483;48.622;9.230;2023-07-16T13:07:17;1.65;;;1.50;;
8893;SDS011;4483;48.622;9.230;2023-07-16T13:09:43;1.65;;;1.55;;
8893;SDS011;4483;48.622;9.230;2023-07-16T13:12:11;3.05;;;1.70;;
8893;SDS011;4483;48.622;9.230;2023-07-16T13:14:38;2.45;;;1.55;;
8893;SDS011;4483;48.622;9.230;2023-07-16T13:17:04;1.45;;;1.30;;
8893;SDS011;4483;48.622;9.230;2023-07-16T13:19:31;4.05;;;1.50;;
8893;SDS011;4483;48.622;9.230;2023-07-16T13:21:58;1.70;;;1.60;;
8893;SDS011;4483;48.622;9.230;2023-07-16T13:24:24;1.60;;;1.45;;
8893;SDS011;4483;48.622;9.230;2023-07-16T13:26:51;3.05;;;1.52;;
8893;SDS011;4483;48.622;9.230;2023-07-16T13:29:19;2.60;;;1.63;;
8893;SDS011;4483;48.622;9.230;2023-07-16T13:31:46;1.50;;;1.40;;
8893;SDS011;4483;48.622;9.230;2023-07-16T13:34:12;2.53;;;1.75;;
8893;SDS011;4483;48.622;9.230;2023-07-16T13:36:39;3.40;;;1.40;;
8893;SDS011;4483;48.622;9.230;2023-07-16T13:39:05;1.83;;;1.50;;
8893;SDS011;4483;48.622;9.230;2023-07-16T13:41:33;1.80;;;1.70;;
8893;SDS011;4483;48.622;9.230;2023-07-16T13:43:59;1.75;;;1.58;;
8893;SDS011;4483;48.622;9.230;2023-07-16T13:46:27;1.77;;;1.40;;
8893;SDS011;4483;48.622;9.230;2023-07-16T13:48:54;3.10;;;1.50;;
8893;SDS011;4483;48.622;9.230;2023-07-16T13:51:21;2.17;;;1.60;;
8893;SDS011;4483;48.622;9.230;2023-07-16T13:53:48;2.35;;;2.13;;
8893;SDS011;4483;48.622;9.230;2023-07-16T13:56:14;2.15;;;1.60;;
8893;SDS011;4483;48.622;9.230;2023-07-16T13:58:41;1.50;;;1.40;;
8893;SDS011;4483;48.622;9.230;2023-07-16T14:01:07;2.25;;;1.73;;
8893;SDS011;4483;48.622;9.230;2023-07-16T14:03:35;1.48;;;1.38;;
8893;SDS011;4483;48.622;9.230;2023-07-16T14:06:02;1.67;;;1.50;;
8893;SDS011;4483;48.622;9.230;2023-07-16T14:08:29;2.20;;;1.85;;
8893;SDS011;4483;48.622;9.230;2023-07-16T14:10:58;2.55;;;1.90;;
8893;SDS011;4483;48.622;9.230;2023-07-16T14:13:25;1.58;;;1.48;;
8893;SDS011;4483;48.622;9.230;2023-07-16T14:15:52;1.98;;;1.60;;
8893;SDS011;4483;48.622;9.230;2023-07-16T14:18:18;1.83;;;1.70;;
8893;SDS011;4483;48.622;9.230;2023-07-16T14:20:46;3.22;;;1.50;;
8893;SDS011;4483;48.622;9.230;2023-07-16T14:23:13;2.08;;;1.85;;
8893;SDS011;4483;48.622;9.230;2023-07-16T14:25:39;4.20;;;1.55;;
8893;SDS011;4483;48.622;9.230;2023-07-16T14:28:06;4.03;;;1.90;;
8893;SDS011;4483;48.622;9.230;2023-07-16T14:30:33;2.85;;;1.80;;
8893;SDS011;4483;48.622;9.230;2023-07-16T14:32:59;3.22;;;1.65;;
8893;SDS011;4483;48.622;9.230;2023-07-16T14:35:28;1.83;;;1.73;;
8893;SDS011;4483;48.622;9.230;2023-07-16T14:37:56;1.65;;;1.52;;
8893;SDS011;4483;48.622;9.230;2023-07-16T14:40:24;1.67;;;1.48;;
8893;SDS011;4483;48.622;9.230;2023-07-16T14:42:51;1.35;;;1.33;;
8893;SDS011;4483;48.622;9.230;2023-07-16T14:45:17;1.80;;;1.42;;
8893;SDS011;4483;48.622;9.230;2023-07-16T14:47:44;2.28;;;1.67;;
8893;SDS011;4483;48.622;9.230;2023-07-16T14:50:11;3.13;;;1.88;;
8893;SDS011;4483;48.622;9.230;2023-07-16T14:52:38;1.60;;;1.50;;
8893;SDS011;4483;48.622;9.230;2023-07-16T14:55:06;1.92;;;1.70;;
8893;SDS011;4483;48.622;9.230;2023-07-16T14:57:34;1.45;;;1.35;;
8893;SDS011;4483;48.622;9.230;2023-07-16T15:00:00;3.33;;;1.90;;
8893;SDS011;4483;48.622;9.230;2023-07-16T15:02:30;1.70;;;1.60;;
8893;SDS011;4483;48.622;9.230;2023-07-16T15:04:56;2.15;;;1.90;;
8893;SDS011;4483;48.622;9.230;2023-07-16T15:07:23;1.88;;;1.50;;
8893;SDS011;4483;48.622;9.230;2023-07-16T15:09:50;2.15;;;1.90;;
8893;SDS011;4483;48.622;9.230;2023-07-16T15:12:18;1.60;;;1.50;;
8893;SDS011;4483;48.622;9.230;2023-07-16T15:14:44;9.80;;;1.80;;
8893;SDS011;4483;48.622;9.230;2023-07-16T15:17:11;2.60;;;1.50;;
8893;SDS011;4483;48.622;9.230;2023-07-16T15:19:39;3.20;;;1.77;;